Flight Track Log - Related Links

Times and Time Zones

All times are in EDT time to prevent confusion due to time zone crossing. See the ASA643 flight status page for this flight to view local times or setup timezone preferences in your user account.

Time Position Orientation Groundspeed Altitude Reporting Facility
EDT Latitude Longitude Course Direction KTS MPH feet Rate Location/Type
Thu 02:07:20 PM 33.4333 -112.0333 270° West 186 214 1,900  Level Phoenix TRACON
Thu 02:08:21 PM 33.4333 -112.1167 270° West 224 258 3,500 1,565 Climbing Phoenix TRACON
Thu 02:09:15 PM 33.4403 -112.1742 278° West 247 284 4,900 2,224 Climbing Albuquerque Center
Thu 02:10:17 PM 33.5083 -112.1928 347° North 277 319 7,800 2,758 Climbing Albuquerque Center
Thu 02:11:19 PM 33.5667 -112.1092 50° Northeast 272 313 10,600 2,274 Climbing Albuquerque Center
Thu 02:12:21 PM 33.6353 -112.0417 39° Northeast 321 369 12,500 1,984 Climbing Albuquerque Center
Thu 02:13:23 PM 33.7161 -111.9814 32° Northeast 340 391 14,700 1,984 Climbing Albuquerque Center
Thu 02:14:25 PM 33.8006 -111.9181 32° Northeast 354 407 16,600 1,452 Climbing Albuquerque Center
Thu 02:15:27 PM 33.8986 -111.8636 25° Northeast 398 458 17,700 1,366 Climbing Albuquerque Center
Thu 02:16:28 PM 34.0314 -111.8800 354° North 416 479 19,400 1,659 Climbing Albuquerque Center
Thu 02:17:30 PM 34.1503 -111.8953 354° North 428 493 21,100 1,500 Climbing Albuquerque Center
Thu 02:18:32 PM 34.2631 -111.9125 353° North 441 507 22,500 1,452 Climbing Albuquerque Center
Thu 02:19:34 PM 34.3869 -111.9289 354° North 445 512 24,100 1,403 Climbing Albuquerque Center
Thu 02:20:36 PM 34.5356 -111.9494 353° North 446 513 25,400 1,210 Climbing Albuquerque Center
Thu 02:21:38 PM 34.6631 -111.9678 353° North 454 522 26,600 1,113 Climbing Albuquerque Center
Thu 02:22:40 PM 34.7903 -111.9856 353° North 463 533 27,700 919 Climbing Albuquerque Center
Thu 02:23:42 PM 34.9194 -112.0028 354° North 468 539 28,500 780 Climbing Albuquerque Center
Thu 02:24:43 PM 35.0508 -112.0197 354° North 475 547 29,300 927 Climbing Albuquerque Center
Thu 02:25:45 PM 35.2092 -112.0419 353° North 481 554 30,400 1,065 Climbing Albuquerque Center
Thu 02:26:47 PM 35.3408 -112.0589 354° North 481 554 31,500 1,065 Climbing Albuquerque Center
Thu 02:27:49 PM 35.4703 -112.0767 354° North 477 549 32,600 968 Climbing Albuquerque Center
Thu 02:28:51 PM 35.5992 -112.0933 354° North 473 544 33,500 677 Climbing Albuquerque Center
Thu 02:29:53 PM 35.7275 -112.1117 353° North 471 542 34,000 242 Climbing Albuquerque Center
Thu 02:30:55 PM 35.8831 -112.1336 353° North 472 543 34,000  Level Albuquerque Center
Thu 02:31:57 PM 36.0081 -112.1758 345° North 480 552 34,000  Level Albuquerque Center
Thu 02:32:59 PM 36.1236 -112.2469 334° Northwest 471 542 34,000  Level Albuquerque Center
Thu 02:34:10 PM 36.2511 -112.3267 333° Northwest 468 539 34,000  Level Los Angeles Center
Thu 02:35:12 PM 36.3686 -112.3992 334° Northwest 470 541 34,000  Level Los Angeles Center
Thu 02:36:14 PM 36.5089 -112.4878 333° Northwest 472 543 34,000  Level Los Angeles Center
Thu 02:37:16 PM 36.6269 -112.5625 333° Northwest 476 548 34,000  Level Los Angeles Center
Thu 02:38:19 PM 36.7458 -112.6369 333° Northwest 477 549 34,000  Level Los Angeles Center
Thu 02:39:21 PM 36.8642 -112.7136 333° Northwest 478 550 34,000  Level Los Angeles Center
Thu 02:40:23 PM 37.0072 -112.8061 333° Northwest 481 554 34,000  Level Los Angeles Center
Thu 02:41:25 PM 37.1253 -112.8819 333° Northwest 477 549 34,000  Level Los Angeles Center
Thu 02:42:27 PM 37.2428 -112.9583 333° Northwest 474 545 34,000  Level Los Angeles Center
Thu 02:43:29 PM 37.3614 -113.0347 333° Northwest 473 544 34,000  Level Los Angeles Center
Thu 02:44:31 PM 37.4806 -113.1122 333° Northwest 474 545 34,000  Level Los Angeles Center
Thu 02:45:34 PM 37.6006 -113.1903 333° Northwest 476 548 34,000 288 Level Los Angeles Center
Thu 02:46:36 PM 37.7136 -113.2792 328° Northwest 480 552 34,600 484 Climbing Los Angeles Center
Thu 02:47:38 PM 37.8333 -113.4064 320° Northwest 468 539 35,000 194 Climbing Los Angeles Center
Thu 02:48:40 PM 37.9319 -113.5136 319° Northwest 466 536 35,000  Level Los Angeles Center
Thu 02:49:42 PM 38.0317 -113.6203 320° Northwest 468 539 35,000  Level Los Angeles Center
Thu 02:50:44 PM 38.1289 -113.7264 319° Northwest 463 533 35,000  Level Los Angeles Center
Thu 02:51:47 PM 38.2278 -113.8336 320° Northwest 466 536 35,000  Level Los Angeles Center
Thu 02:52:49 PM 38.3261 -113.9400 320° Northwest 465 535 35,000  Level Los Angeles Center
Thu 02:53:51 PM 38.4442 -114.0694 319° Northwest 466 536 35,000  Level Los Angeles Center
Thu 02:55:14 PM 38.5625 -114.1975 320° Northwest 466 536 35,000 124 Level Salt Lake Center
Thu 02:56:16 PM 38.6814 -114.3275 320° Northwest 468 539 35,300 484 Climbing Salt Lake Center
Thu 02:57:18 PM 38.7781 -114.4356 319° Northwest 463 533 36,000 339 Climbing Salt Lake Center
Thu 02:58:20 PM 38.8750 -114.5422 319° Northwest 460 529 36,000  Level Salt Lake Center
Thu 02:59:22 PM 38.9714 -114.6522 318° Northwest 463 533 36,000  Level Salt Lake Center
Thu 03:00:24 PM 39.0683 -114.7611 319° Northwest 463 533 36,000  Level Salt Lake Center
Thu 03:01:26 PM 39.1700 -114.8725 320° Northwest 464 534 36,000  Level Salt Lake Center
Thu 03:02:28 PM 39.2761 -114.9978 318° Northwest 463 533 36,000  Level Salt Lake Center
Thu 03:03:30 PM 39.3711 -115.1003 320° Northwest 464 534 36,000  Level Salt Lake Center
Thu 03:04:31 PM 39.4797 -115.2219 319° Northwest 464 534 36,000  Level Salt Lake Center
Thu 03:05:33 PM 39.5711 -115.3275 318° Northwest 462 532 36,000  Level Salt Lake Center
Thu 03:06:35 PM 39.6756 -115.4517 318° Northwest 458 527 36,000  Level Salt Lake Center
Thu 03:07:37 PM 39.7672 -115.5572 319° Northwest 459 528 36,000  Level Salt Lake Center
Thu 03:08:39 PM 39.8747 -115.6797 319° Northwest 458 527 36,000  Level Salt Lake Center
Thu 03:09:41 PM 39.9678 -115.7839 319° Northwest 461 531 36,000  Level Salt Lake Center
Thu 03:10:43 PM 40.0744 -115.9097 318° Northwest 463 533 36,000  Level Salt Lake Center
Thu 03:11:45 PM 40.1667 -116.0169 318° Northwest 464 534 36,000  Level Salt Lake Center
Thu 03:12:47 PM 40.2556 -116.1244 317° Northwest 459 528 36,000  Level Salt Lake Center
Thu 03:13:49 PM 40.3619 -116.2497 318° Northwest 463 533 36,000  Level Salt Lake Center
Thu 03:14:51 PM 40.4536 -116.3575 318° Northwest 464 534 36,000  Level Salt Lake Center
Thu 03:15:53 PM 40.5589 -116.4828 318° Northwest 461 531 36,000  Level Salt Lake Center
Thu 03:16:55 PM 40.6483 -116.5906 318° Northwest 460 529 36,000  Level Salt Lake Center
Thu 03:17:57 PM 40.7528 -116.7167 318° Northwest 461 531 36,000  Level Salt Lake Center
Thu 03:18:59 PM 40.8578 -116.8425 318° Northwest 459 528 36,000  Level Salt Lake Center
Thu 03:20:01 PM 40.9469 -116.9497 318° Northwest 456 525 36,000  Level Salt Lake Center
Thu 03:21:03 PM 41.0356 -117.0583 317° Northwest 456 525 36,000  Level Salt Lake Center
Thu 03:22:05 PM 41.1392 -117.1847 317° Northwest 455 524 36,000  Level Salt Lake Center
Thu 03:23:07 PM 41.2283 -117.2939 317° Northwest 456 525 36,000  Level Salt Lake Center
Thu 03:24:09 PM 41.3325 -117.4203 318° Northwest 456 525 36,000  Level Salt Lake Center
Thu 03:25:11 PM 41.4206 -117.5308 317° Northwest 455 524 36,000  Level Salt Lake Center
Thu 03:26:13 PM 41.5233 -117.6583 317° Northwest 453 521 36,000  Level Salt Lake Center
Thu 03:27:15 PM 41.6092 -117.7647 317° Northwest 446 513 36,000  Level Salt Lake Center
Thu 03:28:17 PM 41.7092 -117.8900 317° Northwest 442 509 36,000  Level Salt Lake Center
Thu 03:29:19 PM 41.7944 -117.9972 317° Northwest 440 506 36,000  Level Salt Lake Center
Thu 03:30:21 PM 41.9197 -118.0836 333° Northwest 460 529 36,000  Level Salt Lake Center
Thu 03:31:23 PM 42.0333 -118.1481 337° Northwest 461 531 36,000  Level Salt Lake Center
Thu 03:32:25 PM 42.1719 -118.1903 347° North 463 533 36,000  Level Salt Lake Center
Thu 03:33:27 PM 42.2983 -118.1608 10° North 474 545 36,000  Level Salt Lake Center
Thu 03:34:29 PM 42.4256 -118.1189 14° North 478 550 36,000  Level Salt Lake Center
Thu 03:35:31 PM 42.5614 -118.1522 350° North 448 516 36,000  Level Salt Lake Center
Thu 03:36:33 PM 42.6819 -118.2178 338° Northwest 444 511 36,000  Level Salt Lake Center
Thu 03:37:35 PM 42.7961 -118.2778 339° North 442 509 36,000  Level Salt Lake Center
Thu 03:38:37 PM 42.9108 -118.3400 338° Northwest 442 509 36,000  Level Salt Lake Center
Thu 03:39:39 PM 43.0256 -118.4014 339° North 444 511 36,000  Level Salt Lake Center
Thu 03:40:41 PM 43.1403 -118.4617 339° North 443 510 36,000  Level Salt Lake Center
Thu 03:41:43 PM 43.2789 -118.5358 339° North 446 513 36,000  Level Salt Lake Center
Thu 03:42:45 PM 43.3931 -118.6003 338° Northwest 445 512 36,000  Level Salt Lake Center
Thu 03:43:47 PM 43.5083 -118.6619 339° North 445 512 36,000  Level Salt Lake Center
Thu 03:44:49 PM 43.6228 -118.7267 338° Northwest 445 512 36,000  Level Salt Lake Center
Thu 03:45:51 PM 43.7381 -118.7889 339° North 446 513 36,000  Level Salt Lake Center
Thu 03:46:53 PM 43.8542 -118.8528 338° Northwest 449 517 36,000  Level Salt Lake Center
Thu 03:47:55 PM 43.9931 -118.9306 338° Northwest 449 517 36,000  Level Salt Lake Center
Thu 03:48:44 PM 44.0825 -118.9856 336° Northwest 449 517 36,000  Level Seattle Center
Thu 03:49:46 PM 44.1989 -119.0494 339° North 451 519 36,000  Level Seattle Center
Thu 03:50:47 PM 44.3136 -119.1144 338° Northwest 450 518 36,000  Level Seattle Center
Thu 03:51:48 PM 44.4278 -119.1794 338° Northwest 446 513 36,000  Level Seattle Center
Thu 03:52:49 PM 44.5428 -119.2450 338° Northwest 448 516 36,000  Level Seattle Center
Thu 03:53:50 PM 44.6586 -119.3081 339° North 449 517 36,000  Level Seattle Center
Thu 03:54:51 PM 44.7733 -119.3742 338° Northwest 449 517 36,000  Level Seattle Center
Thu 03:55:53 PM 44.9083 -119.4517 338° Northwest 442 509 36,000  Level Seattle Center
Thu 03:56:54 PM 45.0197 -119.5172 337° Northwest 440 506 36,000  Level Seattle Center
Thu 03:57:55 PM 45.1325 -119.5819 338° Northwest 443 510 36,000  Level Seattle Center
Thu 03:58:56 PM 45.2458 -119.6494 337° Northwest 447 514 36,000  Level Seattle Center
Thu 03:59:57 PM 45.3606 -119.7158 338° Northwest 450 518 36,000  Level Seattle Center
Thu 04:00:58 PM 45.4747 -119.7839 337° Northwest 448 516 36,000  Level Seattle Center
Thu 04:01:59 PM 45.5894 -119.8506 338° Northwest 447 514 36,000  Level Seattle Center
Thu 04:03:00 PM 45.7042 -119.9189 337° Northwest 449 517 36,000  Level Seattle Center
Thu 04:04:01 PM 45.8406 -120.0000 337° Northwest 444 511 36,000  Level Seattle Center
Thu 04:05:03 PM 45.9675 -120.0219 353° North 469 540 36,000  Level Seattle Center
Thu 04:06:04 PM 46.1008 -120.0153 North 480 552 36,000 -541 Level Seattle Center
Thu 04:07:05 PM 46.2119 -120.1039 331° Northwest 457 526 34,900 -2,066 Descending Seattle Center
Thu 04:08:06 PM 46.3158 -120.2053 326° Northwest 452 520 31,800 -2,164 Descending Seattle Center
Thu 04:09:07 PM 46.4214 -120.3058 327° Northwest 455 524 30,500 -1,131 Descending Seattle Center
Thu 04:10:08 PM 46.5278 -120.4042 328° Northwest 455 524 29,500 -934 Descending Seattle Center
Thu 04:11:09 PM 46.6119 -120.5358 313° West 446 513 28,600 -934 Descending Seattle Center
Thu 04:12:10 PM 46.6800 -120.6786 305° West 434 499 27,600 -1,033 Descending Seattle Center
Thu 04:13:11 PM 46.7469 -120.8200 305° West 427 491 26,500 -1,180 Descending Seattle Center
Thu 04:14:12 PM 46.8250 -120.9850 305° West 414 476 25,200 -1,131 Descending Seattle Center
Thu 04:15:13 PM 46.8883 -121.1200 305° West 406 467 24,200 -984 Descending Seattle Center
Thu 04:16:14 PM 46.9506 -121.2531 304° West 400 460 23,200 -1,610 Descending Seattle Center
Thu 04:17:16 PM 47.0133 -121.3872 304° West 400 460 20,900 -1,805 Descending Seattle Center
Thu 04:18:17 PM 47.0694 -121.5075 304° West 395 455 19,500 -1,721 Descending Seattle Center
Thu 04:19:18 PM 47.1364 -121.6522 304° West 355 409 17,400 -2,016 Descending Seattle Center
Thu 04:20:19 PM 47.1942 -121.7786 304° West 351 404 15,400 -1,230 Descending Seattle Center
Thu 04:21:20 PM 47.2467 -121.8936 304° West 338 389 14,900 -1,033 Descending Seattle Center
Thu 04:22:21 PM 47.2967 -122.0028 304° West 321 369 13,300 -1,820 Descending Seattle Center
Thu 04:23:22 PM 47.3444 -122.1081 304° West 311 358 11,200 -1,672 Descending Seattle Center
Thu 04:24:23 PM 47.4039 -122.1967 315° West 315 362 9,900 -1,339 Descending Seattle Center
Thu 04:25:23 PM 47.4989 -122.1933 North 319 367 8,500 -1,388 Descending Seattle Center
Thu 04:26:24 PM 47.5836 -122.1856 North 310 357 7,100 -1,403 Descending Seattle Center
Thu 04:27:27 PM 47.6739 -122.1842 North 305 351 5,600 -1,328 Descending Seattle Center
Thu 04:28:26 PM 47.7100 -122.2633 304° West 249 287 4,400 -934 Descending Seattle Center
Thu 04:29:29 PM 47.6642 -122.3169 218° Southwest 216 249 3,700 -522 Descending Seattle Center
Thu 04:30:21 PM 47.6219 -122.3189 182° South 175 201 3,400 -584 Descending Seattle Center
Thu 04:31:22 PM 47.5769 -122.3175 179° South 157 181 2,600 -836 Descending Seattle Center
Thu 04:32:23 PM 47.5283 -122.3181 180° South 161 185 1,700 -843 Descending Seattle Center
Thu 04:33:23 PM 47.4861 -122.3183 180° South 151 174 900 -595 Descending Seattle Center
Thu 04:34:34 PM 47.4342 -122.3186 180° South 153 176 400 -423 Descending Seattle Center
Thu 04:36:00 PM 47.4333 -122.3000 90° East  Level FlightAware Approximate

Login

Don't have an account? Register now (free) for customized features, flight alerts, and more!